createdAt,value
2018-03-21T00:00:22.144Z,10.70
2018-03-21T00:02:49.597Z,4.57
2018-03-21T00:05:17.060Z,9.17
2018-03-21T00:07:44.538Z,11.83
2018-03-21T00:10:11.973Z,3.53
2018-03-21T00:12:39.432Z,4.57
2018-03-21T00:15:06.872Z,8.60
2018-03-21T00:17:34.341Z,5.17
2018-03-21T00:20:01.784Z,6.63
2018-03-21T00:22:29.265Z,7.53
2018-03-21T00:24:56.745Z,10.67
2018-03-21T00:27:24.965Z,10.37
2018-03-21T00:29:52.445Z,4.60
2018-03-21T00:32:19.879Z,6.87
2018-03-21T00:34:47.345Z,9.40
2018-03-21T00:37:14.804Z,8.77
2018-03-21T00:39:42.261Z,6.87
2018-03-21T00:42:09.749Z,5.13
2018-03-21T00:44:37.205Z,4.90
2018-03-21T00:47:04.643Z,9.20
2018-03-21T00:49:32.104Z,7.17
2018-03-21T00:51:59.584Z,6.27
2018-03-21T00:54:27.792Z,6.67
2018-03-21T00:56:55.248Z,7.97
2018-03-21T00:59:22.705Z,6.37
2018-03-21T01:01:50.168Z,4.50
2018-03-21T01:04:17.630Z,7.83
2018-03-21T01:06:45.074Z,9.43
2018-03-21T01:09:12.553Z,9.17
2018-03-21T01:11:40.700Z,6.30
2018-03-21T01:14:08.129Z,8.73
2018-03-21T01:16:36.353Z,8.50
2018-03-21T01:19:03.803Z,7.30
2018-03-21T01:21:31.272Z,5.03
2018-03-21T01:23:58.722Z,8.63
2018-03-21T01:26:26.176Z,6.90
2018-03-21T01:28:53.637Z,11.13
2018-03-21T01:31:21.106Z,10.50
2018-03-21T01:33:48.581Z,5.90
2018-03-21T01:36:16.049Z,10.60
2018-03-21T01:38:44.284Z,6.17
2018-03-21T01:41:11.758Z,8.87
2018-03-21T01:43:39.214Z,6.20
2018-03-21T01:46:06.686Z,9.47
2018-03-21T01:48:34.125Z,9.90
2018-03-21T01:51:01.606Z,8.40
2018-03-21T01:53:29.829Z,8.50
2018-03-21T01:55:57.268Z,12.17
2018-03-21T01:58:24.741Z,8.87
2018-03-21T02:00:52.205Z,7.53
2018-03-21T02:03:20.430Z,10.73
2018-03-21T02:05:48.653Z,8.40
2018-03-21T02:08:16.165Z,10.70
2018-03-21T02:10:43.600Z,7.37
2018-03-21T02:13:11.066Z,9.67
2018-03-21T02:15:38.498Z,11.13
2018-03-21T02:18:05.953Z,6.67
2018-03-21T02:20:33.429Z,7.90
2018-03-21T02:23:00.865Z,8.27
2018-03-21T02:25:28.309Z,9.60
2018-03-21T02:27:56.524Z,10.90
2018-03-21T02:30:24.738Z,9.23
2018-03-21T02:32:52.216Z,9.93
2018-03-21T02:35:19.661Z,11.53
2018-03-21T02:37:47.136Z,9.57
2018-03-21T02:40:14.605Z,11.73
2018-03-21T02:42:42.052Z,10.07
2018-03-21T02:45:09.521Z,8.63
2018-03-21T02:47:36.993Z,7.27
2018-03-21T02:50:05.213Z,10.73
2018-03-21T02:52:32.681Z,9.83
2018-03-21T02:55:00.132Z,7.70
2018-03-21T02:57:27.585Z,10.13
2018-03-21T02:59:55.053Z,8.33
2018-03-21T03:02:22.601Z,8.33
2018-03-21T03:04:50.071Z,10.30
2018-03-21T03:07:17.521Z,9.37
2018-03-21T03:09:44.972Z,5.73
2018-03-21T03:12:12.421Z,11.40
2018-03-21T03:14:39.896Z,9.47
2018-03-21T03:17:07.368Z,7.30
2018-03-21T03:19:34.828Z,10.10
2018-03-21T03:22:02.305Z,9.23
2018-03-21T03:24:29.769Z,8.93
2018-03-21T03:26:57.998Z,7.83
2018-03-21T03:29:25.441Z,7.60
2018-03-21T03:31:52.918Z,7.97
2018-03-21T03:34:20.408Z,22.63
2018-03-21T03:36:47.877Z,15.97
2018-03-21T03:39:16.125Z,16.50
2018-03-21T03:41:43.573Z,17.10
2018-03-21T03:44:11.048Z,10.03
2018-03-21T03:46:38.522Z,8.80
2018-03-21T03:49:06.761Z,9.63
2018-03-21T03:51:34.237Z,12.03
2018-03-21T03:54:02.451Z,11.27
2018-03-21T03:56:29.916Z,13.67
2018-03-21T03:58:57.369Z,12.30
2018-03-21T04:01:24.826Z,9.70
2018-03-21T04:03:52.297Z,10.73
2018-03-21T04:06:19.736Z,15.63
2018-03-21T04:08:47.221Z,10.97
2018-03-21T04:11:14.687Z,11.97
2018-03-21T04:13:42.162Z,12.83
2018-03-21T04:16:09.646Z,12.50
2018-03-21T04:18:37.111Z,13.00
2018-03-21T04:21:05.396Z,10.73
2018-03-21T04:23:32.836Z,12.53
2018-03-21T04:26:00.328Z,12.53
2018-03-21T04:28:27.808Z,11.30
2018-03-21T04:30:55.292Z,11.77
2018-03-21T04:33:23.537Z,12.47
2018-03-21T04:35:51.012Z,10.67
2018-03-21T04:38:19.364Z,16.23
2018-03-21T04:40:46.820Z,9.47
2018-03-21T04:43:14.304Z,12.40
2018-03-21T04:45:41.784Z,11.23
2018-03-21T04:48:10.018Z,10.90
2018-03-21T04:50:37.472Z,10.03
2018-03-21T04:53:04.937Z,8.60
2018-03-21T04:55:32.427Z,10.67
2018-03-21T04:58:00.684Z,11.57
2018-03-21T05:00:28.164Z,12.57
2018-03-21T05:02:55.638Z,14.87
2018-03-21T05:05:23.100Z,10.97
2018-03-21T05:07:50.568Z,11.67
2018-03-21T05:10:18.011Z,15.40
2018-03-21T05:12:45.483Z,8.80
2018-03-21T05:15:13.692Z,8.70
2018-03-21T05:17:41.161Z,13.70
2018-03-21T05:20:08.634Z,14.33
2018-03-21T05:22:36.882Z,12.90
2018-03-21T05:25:04.365Z,16.30
2018-03-21T05:27:32.606Z,11.53
2018-03-21T05:30:00.047Z,9.93
2018-03-21T05:32:27.533Z,12.60
2018-03-21T05:34:54.976Z,16.13
2018-03-21T05:37:22.457Z,14.33
2018-03-21T05:39:50.697Z,16.27
2018-03-21T05:42:18.145Z,9.30
2018-03-21T05:44:45.592Z,13.13
2018-03-21T05:47:13.043Z,16.07
2018-03-21T05:49:40.506Z,10.37
2018-03-21T05:52:08.814Z,16.13
2018-03-21T05:54:36.296Z,10.67
2018-03-21T05:57:04.512Z,9.47
2018-03-21T05:59:31.985Z,13.77
2018-03-21T06:01:59.476Z,13.87
2018-03-21T06:04:26.917Z,12.07
2018-03-21T06:06:55.093Z,11.43
2018-03-21T06:09:22.560Z,16.87
2018-03-21T06:11:50.777Z,10.40
2018-03-21T06:14:18.257Z,14.50
2018-03-21T06:16:45.726Z,13.90
2018-03-21T06:19:13.182Z,17.07
2018-03-21T06:21:40.629Z,12.33
2018-03-21T06:24:08.101Z,9.53
2018-03-21T06:26:35.553Z,13.67
2018-03-21T06:29:03.040Z,27.23
2018-03-21T06:31:30.520Z,17.30
2018-03-21T06:33:58.210Z,14.80
2018-03-21T06:36:25.701Z,10.83
2018-03-21T06:38:53.153Z,9.07
2018-03-21T06:41:20.594Z,14.57
2018-03-21T06:43:48.100Z,13.27
2018-03-21T06:46:15.537Z,12.07
2018-03-21T06:48:43.745Z,13.50
2018-03-21T06:51:11.254Z,13.57
2018-03-21T06:53:39.514Z,11.80
2018-03-21T06:56:06.973Z,13.73
2018-03-21T06:58:34.457Z,11.80
2018-03-21T07:01:02.673Z,14.93
2018-03-21T07:03:30.120Z,12.53
2018-03-21T07:05:57.583Z,11.00
2018-03-21T07:08:25.036Z,9.47
2018-03-21T07:10:52.574Z,12.33
2018-03-21T07:13:20.809Z,12.63
2018-03-21T07:16:00.344Z,11.97
2018-03-21T07:18:27.804Z,16.03
2018-03-21T07:20:55.249Z,14.33
2018-03-21T07:23:22.701Z,12.40
2018-03-21T07:25:50.142Z,8.60
2018-03-21T07:28:17.616Z,12.77
2018-03-21T07:30:45.049Z,9.73
2018-03-21T07:33:12.513Z,9.87
2018-03-21T07:35:39.977Z,13.23
2018-03-21T07:38:07.440Z,11.23
2018-03-21T07:40:34.912Z,11.67
2018-03-21T07:43:02.344Z,7.00
2018-03-21T07:45:29.789Z,9.60
2018-03-21T07:47:57.247Z,10.50
2018-03-21T07:50:24.680Z,12.57
2018-03-21T07:52:52.158Z,10.57
2018-03-21T07:55:19.661Z,12.23
2018-03-21T07:57:47.101Z,10.30
2018-03-21T08:00:14.557Z,12.07
2018-03-21T08:02:42.024Z,12.30
2018-03-21T08:05:09.501Z,18.70
2018-03-21T08:07:37.733Z,8.97
2018-03-21T08:10:05.190Z,14.63
2018-03-21T08:12:32.653Z,13.77
2018-03-21T08:15:00.115Z,13.13
2018-03-21T08:17:27.557Z,13.00
2018-03-21T08:19:55.010Z,13.57
2018-03-21T08:22:22.488Z,14.93
2018-03-21T08:24:49.983Z,17.07
2018-03-21T08:27:18.195Z,19.70
2018-03-21T08:29:46.181Z,19.40
2018-03-21T08:32:13.664Z,14.27
2018-03-21T08:34:41.097Z,16.37
2018-03-21T08:37:08.580Z,20.10
2018-03-21T08:39:35.994Z,15.27
2018-03-21T08:42:03.480Z,19.20
2018-03-21T08:44:30.950Z,16.20
2018-03-21T08:46:58.389Z,18.33
2018-03-21T08:49:25.850Z,15.63
2018-03-21T08:51:53.310Z,19.17
2018-03-21T08:54:21.669Z,16.80
2018-03-21T08:56:49.890Z,22.70
2018-03-21T08:59:18.095Z,15.67
2018-03-21T09:01:45.543Z,19.07
2018-03-21T09:04:13.005Z,20.87
2018-03-21T09:06:40.530Z,21.67
2018-03-21T09:09:08.731Z,27.67
2018-03-21T09:11:36.292Z,36.53
2018-03-21T09:14:03.778Z,40.63
2018-03-21T09:16:31.243Z,43.63
2018-03-21T09:18:58.731Z,44.13
2018-03-21T09:21:26.938Z,49.93
2018-03-21T09:23:54.386Z,48.67
2018-03-21T09:26:21.860Z,51.17
2018-03-21T09:28:49.342Z,56.17
2018-03-21T09:31:16.788Z,57.70
2018-03-21T09:33:44.260Z,59.27
2018-03-21T09:36:11.736Z,57.37
2018-03-21T09:38:39.972Z,59.90
2018-03-21T09:41:07.436Z,66.37
2018-03-21T09:43:34.893Z,73.33
2018-03-21T09:46:02.353Z,66.90
2018-03-21T09:48:29.821Z,68.10
2018-03-21T09:50:57.299Z,68.60
2018-03-21T09:53:25.528Z,67.07
2018-03-21T09:55:53.004Z,68.23
2018-03-21T09:58:20.471Z,79.80
2018-03-21T10:00:47.946Z,80.63
2018-03-21T10:03:16.202Z,84.90
2018-03-21T10:05:43.671Z,81.77
2018-03-21T10:08:11.132Z,82.90
2018-03-21T10:10:39.378Z,83.83
2018-03-21T10:13:06.869Z,83.80
2018-03-21T10:15:35.092Z,90.83
2018-03-21T10:18:02.564Z,85.37
2018-03-21T10:20:30.013Z,80.97
2018-03-21T10:22:57.488Z,85.07
2018-03-21T10:25:24.956Z,86.30
2018-03-21T10:27:52.419Z,88.90
2018-03-21T10:30:19.895Z,77.93
2018-03-21T10:32:48.128Z,76.33
2018-03-21T10:35:15.612Z,71.37
2018-03-21T10:37:43.820Z,78.87
2018-03-21T10:40:11.301Z,85.60
2018-03-21T10:42:38.771Z,76.27
2018-03-21T10:45:06.231Z,72.93
2018-03-21T10:47:33.720Z,74.10
2018-03-21T10:50:01.934Z,71.50
2018-03-21T10:52:38.778Z,77.63
2018-03-21T10:54:56.844Z,68.57
2018-03-21T10:57:24.290Z,73.40
2018-03-21T10:59:51.746Z,76.10
2018-03-21T11:02:19.220Z,75.13
2018-03-21T11:04:46.661Z,75.30
2018-03-21T11:07:14.133Z,72.40
2018-03-21T11:09:41.610Z,71.73
2018-03-21T11:12:09.077Z,78.00
2018-03-21T11:14:36.531Z,60.10
2018-03-21T11:17:04.009Z,65.00
2018-03-21T11:19:32.226Z,62.30
2018-03-21T11:21:59.692Z,60.17
2018-03-21T11:24:27.169Z,60.27
2018-03-21T11:26:54.628Z,63.77
2018-03-21T11:29:22.081Z,62.57
2018-03-21T11:31:49.522Z,61.17
2018-03-21T11:34:16.986Z,62.73
2018-03-21T11:36:44.461Z,64.13
2018-03-21T11:39:11.928Z,66.53
2018-03-21T11:41:39.381Z,64.60
2018-03-21T11:44:06.834Z,60.23
2018-03-21T11:46:34.290Z,67.03
2018-03-21T11:49:01.768Z,63.60
2018-03-21T11:51:29.192Z,68.33
2018-03-21T11:53:56.646Z,61.97
2018-03-21T11:56:24.175Z,63.30
2018-03-21T11:58:51.581Z,65.80
2018-03-21T12:01:19.048Z,63.67
2018-03-21T12:03:47.268Z,64.97
2018-03-21T12:06:14.742Z,64.17
2018-03-21T12:08:42.337Z,63.83
2018-03-21T12:11:09.704Z,67.00
2018-03-21T12:13:37.913Z,61.07
2018-03-21T12:16:05.373Z,63.10
2018-03-21T12:18:32.824Z,60.53
2018-03-21T12:21:00.294Z,63.67
2018-03-21T12:23:27.778Z,52.73
2018-03-21T12:25:55.224Z,49.27
2018-03-21T12:28:22.696Z,39.80
2018-03-21T12:30:50.140Z,44.73
2018-03-21T12:33:17.599Z,52.47
2018-03-21T12:35:45.064Z,49.60
2018-03-21T12:38:12.598Z,47.27
2018-03-21T12:40:40.840Z,50.33
2018-03-21T12:43:09.041Z,53.30
2018-03-21T12:45:36.515Z,54.47
2018-03-21T12:48:04.006Z,57.13
2018-03-21T12:50:32.248Z,57.57
2018-03-21T12:52:59.714Z,53.10
2018-03-21T12:55:27.180Z,55.13
2018-03-21T12:57:55.415Z,65.27
2018-03-21T13:00:22.893Z,53.13
2018-03-21T13:02:50.342Z,54.73
2018-03-21T13:05:17.799Z,51.43
2018-03-21T13:07:45.277Z,49.33
2018-03-21T13:10:12.736Z,51.43
2018-03-21T13:12:40.204Z,50.50
2018-03-21T13:15:08.435Z,47.30
2018-03-21T13:17:35.881Z,43.50
2018-03-21T13:20:03.342Z,43.63
2018-03-21T13:22:30.824Z,37.87
2018-03-21T13:24:58.404Z,54.20
2018-03-21T13:27:25.845Z,47.70
2018-03-21T13:29:53.345Z,49.27
2018-03-21T13:32:20.841Z,48.33
2018-03-21T13:34:48.330Z,43.60
2018-03-21T13:37:16.590Z,38.63
2018-03-21T13:39:44.074Z,42.40
2018-03-21T13:42:12.358Z,43.87
2018-03-21T13:44:39.838Z,45.33
2018-03-21T13:47:07.350Z,45.97
2018-03-21T13:49:35.656Z,42.10
2018-03-21T13:52:03.225Z,47.70
2018-03-21T13:54:30.698Z,41.73
2018-03-21T13:56:58.170Z,44.27
2018-03-21T13:59:25.651Z,45.30
2018-03-21T14:01:53.121Z,41.03
2018-03-21T14:04:21.336Z,39.83
2018-03-21T14:06:48.832Z,42.00
2018-03-21T14:09:16.291Z,42.03
2018-03-21T14:11:43.738Z,42.70
2018-03-21T14:14:11.221Z,40.70
2018-03-21T14:16:39.463Z,66.73
2018-03-21T14:19:06.910Z,38.67
2018-03-21T14:21:34.449Z,34.23
2018-03-21T14:24:01.979Z,35.30
2018-03-21T14:26:29.534Z,35.47
2018-03-21T14:28:57.125Z,37.17
2018-03-21T14:31:24.605Z,30.87
2018-03-21T14:33:52.073Z,32.97
2018-03-21T14:36:19.551Z,27.70
2018-03-21T14:38:47.778Z,30.47
2018-03-21T14:41:15.276Z,31.03
2018-03-21T14:43:42.736Z,25.07
2018-03-21T14:46:10.210Z,27.27
2018-03-21T14:48:38.501Z,27.30
2018-03-21T14:51:06.026Z,29.23
2018-03-21T14:53:33.555Z,31.23
2018-03-21T14:56:01.324Z,31.50
2018-03-21T14:58:28.778Z,27.80
2018-03-21T15:00:56.217Z,28.43
2018-03-21T15:03:23.697Z,28.33
2018-03-21T15:05:52.080Z,25.87
2018-03-21T15:08:19.541Z,25.77
2018-03-21T15:10:47.380Z,26.87
2018-03-21T15:13:15.544Z,26.73
2018-03-21T15:15:43.267Z,24.13
2018-03-21T15:18:11.522Z,32.93
2018-03-21T15:20:39.025Z,25.50
2018-03-21T15:23:06.506Z,25.03
2018-03-21T15:25:33.985Z,30.80
2018-03-21T15:28:01.466Z,34.10
2018-03-21T15:30:28.962Z,31.93
2018-03-21T15:32:56.452Z,25.67
2018-03-21T15:35:23.922Z,20.27
2018-03-21T15:37:51.418Z,32.87
2018-03-21T15:40:18.870Z,24.97
2018-03-21T15:42:47.096Z,28.07
2018-03-21T15:45:14.633Z,23.43
2018-03-21T15:47:42.137Z,20.33
2018-03-21T15:50:09.776Z,25.00
2018-03-21T15:52:38.166Z,23.87
2018-03-21T15:55:05.724Z,31.07
2018-03-21T15:57:34.105Z,24.37
2018-03-21T16:00:01.689Z,24.23
2018-03-21T16:02:29.308Z,25.77
2018-03-21T16:04:56.888Z,27.13
2018-03-21T16:07:25.238Z,26.37
2018-03-21T16:09:52.806Z,25.60
2018-03-21T16:12:20.394Z,28.17
2018-03-21T16:14:48.704Z,28.50
2018-03-21T16:17:16.290Z,22.97
2018-03-21T16:19:44.682Z,26.00
2018-03-21T16:22:13.070Z,21.07
2018-03-21T16:24:41.464Z,26.47
2018-03-21T16:27:09.096Z,25.97
2018-03-21T16:29:36.595Z,21.77
2018-03-21T16:32:04.117Z,22.87
2018-03-21T16:34:31.654Z,34.87
2018-03-21T16:36:59.185Z,19.70
2018-03-21T16:39:26.742Z,19.20
2018-03-21T16:41:58.057Z,30.17
2018-03-21T16:44:25.662Z,19.10
2018-03-21T16:46:53.207Z,22.10
2018-03-21T16:49:20.814Z,20.57
2018-03-21T16:51:48.401Z,27.10
2018-03-21T16:54:16.649Z,21.50
2018-03-21T16:56:44.288Z,21.30
2018-03-21T16:59:11.962Z,17.13
2018-03-21T17:01:39.463Z,18.00
2018-03-21T17:04:07.718Z,23.33
2018-03-21T17:06:35.215Z,23.63
2018-03-21T17:09:02.764Z,22.23
2018-03-21T17:11:31.217Z,20.10
2018-03-21T17:13:58.695Z,19.90
2018-03-21T17:16:27.553Z,21.33
2018-03-21T17:18:55.826Z,18.73
2018-03-21T17:21:24.137Z,24.50
2018-03-21T17:23:53.279Z,19.03
2018-03-21T17:26:20.820Z,19.47
2018-03-21T17:28:48.706Z,19.37
2018-03-21T17:31:18.194Z,21.43
2018-03-21T17:33:46.065Z,25.33
2018-03-21T17:36:13.607Z,21.13
2018-03-21T17:38:41.096Z,31.20
2018-03-21T17:41:08.624Z,42.90
2018-03-21T17:43:36.874Z,39.23
2018-03-21T17:46:05.162Z,34.50
2018-03-21T17:48:32.697Z,31.20
2018-03-21T17:51:01.013Z,34.03
2018-03-21T17:53:29.702Z,35.57
2018-03-21T17:55:57.211Z,37.27
2018-03-21T17:58:24.715Z,30.53
2018-03-21T18:00:52.195Z,37.90
2018-03-21T18:03:21.322Z,31.50
2018-03-21T18:05:49.210Z,33.60
2018-03-21T18:08:18.911Z,27.03
2018-03-21T18:10:47.779Z,28.00
2018-03-21T18:13:16.324Z,26.37
2018-03-21T18:15:43.846Z,25.47
2018-03-21T18:18:13.018Z,32.10
2018-03-21T18:20:41.402Z,29.57
2018-03-21T18:23:08.907Z,27.50
2018-03-21T18:25:36.684Z,31.97
2018-03-21T18:28:04.212Z,27.97
2018-03-21T18:30:32.470Z,26.50
2018-03-21T18:33:04.118Z,25.37
2018-03-21T18:35:31.640Z,30.60
2018-03-21T18:37:59.862Z,26.67
2018-03-21T18:40:27.363Z,22.50
2018-03-21T18:42:55.615Z,23.67
2018-03-21T18:45:24.320Z,22.17
2018-03-21T18:47:51.852Z,24.17
2018-03-21T18:50:19.751Z,26.83
2018-03-21T18:52:48.138Z,32.60
2018-03-21T18:55:16.131Z,28.00
2018-03-21T18:57:45.031Z,27.33
2018-03-21T19:00:12.564Z,25.93
2018-03-21T19:02:40.067Z,31.67
2018-03-21T19:05:07.643Z,31.03
2018-03-21T19:07:35.162Z,35.80
2018-03-21T19:10:03.447Z,33.53
2018-03-21T19:12:32.291Z,32.30
2018-03-21T19:14:59.780Z,32.33
2018-03-21T19:17:28.932Z,31.87
2018-03-21T19:19:58.242Z,31.00
2018-03-21T19:22:26.810Z,32.27
2018-03-21T19:24:56.621Z,30.93
2018-03-21T19:27:24.621Z,32.87
2018-03-21T19:29:52.944Z,28.67
2018-03-21T19:32:24.393Z,37.90
2018-03-21T19:34:51.946Z,32.90
2018-03-21T19:37:20.314Z,32.10
2018-03-21T19:39:48.040Z,33.23
2018-03-21T19:42:16.453Z,26.90
2018-03-21T19:44:44.751Z,31.83
2018-03-21T19:47:13.284Z,31.13
2018-03-21T19:49:43.525Z,28.00
2018-03-21T19:52:15.033Z,25.67
2018-03-21T19:54:42.690Z,30.60
2018-03-21T19:57:10.989Z,26.80
2018-03-21T19:59:38.620Z,37.00
2018-03-21T20:02:07.853Z,40.13
2018-03-21T20:04:36.919Z,29.73
2018-03-21T20:07:06.961Z,26.50
2018-03-21T20:09:36.029Z,32.67
2018-03-21T20:12:09.143Z,28.40
2018-03-21T20:14:43.597Z,26.53
2018-03-21T20:17:12.373Z,30.90
2018-03-21T20:19:44.200Z,27.57
2018-03-21T20:22:14.174Z,30.63
2018-03-21T20:24:43.145Z,30.73
2018-03-21T20:27:11.570Z,28.67
2018-03-21T20:29:39.373Z,28.27
2018-03-21T20:32:07.714Z,27.00
2018-03-21T20:34:37.902Z,32.93
2018-03-21T20:37:09.082Z,33.13
2018-03-21T20:39:38.301Z,47.00
2018-03-21T20:42:06.541Z,46.73
2018-03-21T20:44:34.093Z,33.23
2018-03-21T20:47:03.582Z,35.17
2018-03-21T20:49:33.872Z,35.53
2018-03-21T20:52:01.723Z,38.97
2018-03-21T20:54:30.627Z,40.13
2018-03-21T20:56:58.467Z,40.17
2018-03-21T20:59:26.090Z,35.63
2018-03-21T21:01:54.469Z,42.23
2018-03-21T21:04:23.294Z,39.77
2018-03-21T21:06:51.938Z,44.47
2018-03-21T21:09:21.094Z,40.50
2018-03-21T21:11:48.789Z,34.50
2018-03-21T21:14:16.358Z,40.37
2018-03-21T21:16:46.142Z,31.90
2018-03-21T21:19:13.715Z,42.90
2018-03-21T21:21:42.161Z,36.00
2018-03-21T21:24:09.887Z,35.67
2018-03-21T21:26:39.448Z,44.93
2018-03-21T21:29:08.089Z,34.43
2018-03-21T21:31:36.688Z,37.57
2018-03-21T21:34:05.584Z,34.80
2018-03-21T21:36:34.453Z,40.77
2018-03-21T21:39:02.015Z,35.03
2018-03-21T21:41:30.931Z,35.97
2018-03-21T21:43:59.426Z,38.43
2018-03-21T21:46:28.481Z,36.07
2018-03-21T21:48:56.856Z,34.17
2018-03-21T21:51:24.771Z,34.30
2018-03-21T21:53:52.300Z,39.67
2018-03-21T21:56:19.808Z,36.10
2018-03-21T21:58:48.657Z,31.93
2018-03-21T22:01:17.314Z,34.60
2018-03-21T22:03:44.803Z,34.07
2018-03-21T22:06:12.296Z,39.87
2018-03-21T22:08:40.587Z,35.97
2018-03-21T22:11:12.463Z,36.83
2018-03-21T22:13:40.744Z,35.37
2018-03-21T22:16:09.005Z,28.03
2018-03-21T22:18:36.478Z,35.07
2018-03-21T22:21:03.965Z,33.97
2018-03-21T22:23:32.357Z,36.60
2018-03-21T22:25:59.830Z,33.17
2018-03-21T22:28:28.912Z,38.57
2018-03-21T22:30:56.428Z,32.90
2018-03-21T22:33:24.046Z,33.03
2018-03-21T22:35:52.300Z,37.73
2018-03-21T22:38:20.579Z,42.23
2018-03-21T22:40:48.075Z,35.70
2018-03-21T22:43:15.584Z,32.30
2018-03-21T22:45:43.040Z,43.30
2018-03-21T22:48:10.521Z,37.37
2018-03-21T22:50:38.773Z,42.80
2018-03-21T22:53:06.228Z,41.17
2018-03-21T22:55:34.442Z,34.23
2018-03-21T22:58:01.928Z,39.57
2018-03-21T23:00:29.376Z,40.60
2018-03-21T23:02:56.855Z,33.47
2018-03-21T23:05:24.394Z,37.10
2018-03-21T23:07:51.861Z,40.23
2018-03-21T23:10:19.303Z,38.80
2018-03-21T23:12:46.776Z,42.87
2018-03-21T23:15:14.221Z,35.37
2018-03-21T23:17:41.672Z,36.00
2018-03-21T23:20:09.145Z,41.20
2018-03-21T23:22:36.597Z,35.63
2018-03-21T23:25:04.077Z,36.97
2018-03-21T23:27:31.515Z,42.13
2018-03-21T23:29:58.965Z,41.33
2018-03-21T23:32:26.439Z,41.37
2018-03-21T23:34:53.916Z,40.40
2018-03-21T23:37:21.623Z,36.00
2018-03-21T23:39:49.247Z,40.33
2018-03-21T23:42:16.875Z,36.13
2018-03-21T23:44:44.490Z,35.87
2018-03-21T23:47:12.815Z,33.33
2018-03-21T23:49:40.317Z,37.73
2018-03-21T23:52:08.557Z,44.97
2018-03-21T23:54:36.010Z,35.50
2018-03-21T23:57:03.458Z,47.10
2018-03-21T23:59:31.700Z,36.37
